createdAt,value
2023-04-16T00:02:20.863Z,89.05
2023-04-16T00:04:55.663Z,89.95
2023-04-16T00:09:54.582Z,85.68
2023-04-16T00:12:25.274Z,93.65
2023-04-16T00:14:55.580Z,86.63
2023-04-16T00:17:25.253Z,76.07
2023-04-16T00:19:54.989Z,83.13
2023-04-16T00:22:24.895Z,80.30
2023-04-16T00:24:55.251Z,91.25
2023-04-16T00:27:24.910Z,94.45
2023-04-16T00:29:54.509Z,91.88
2023-04-16T00:32:24.211Z,77.47
2023-04-16T00:34:53.878Z,100.70
2023-04-16T00:37:23.524Z,86.35
2023-04-16T00:39:53.192Z,88.10
2023-04-16T00:42:23.470Z,84.75
2023-04-16T00:44:53.241Z,95.95
2023-04-16T00:47:29.703Z,89.82
2023-04-16T00:49:59.316Z,90.00
2023-04-16T00:52:32.854Z,71.82
2023-04-16T00:55:05.524Z,70.68
2023-04-16T00:57:35.166Z,83.30
2023-04-16T01:00:05.290Z,88.45
2023-04-16T01:02:36.849Z,84.65
2023-04-16T01:05:07.747Z,78.43
2023-04-16T01:07:40.048Z,80.28
2023-04-16T01:10:10.503Z,81.72
2023-04-16T01:12:40.216Z,93.40
2023-04-16T01:15:10.587Z,72.30
2023-04-16T01:17:40.459Z,77.05
2023-04-16T01:20:16.019Z,80.80
2023-04-16T01:22:45.712Z,70.82
2023-04-16T01:25:18.544Z,71.35
2023-04-16T01:27:51.214Z,77.60
2023-04-16T01:30:20.976Z,72.43
2023-04-16T01:32:50.779Z,74.15
2023-04-16T01:35:21.013Z,74.93
2023-04-16T01:37:55.471Z,78.38
2023-04-16T01:40:30.975Z,80.50
2023-04-16T01:43:03.265Z,84.25
2023-04-16T01:45:39.757Z,80.35
2023-04-16T01:48:15.791Z,84.20
2023-04-16T01:50:45.500Z,89.97
2023-04-16T01:53:15.193Z,87.78
2023-04-16T01:55:44.971Z,70.47
2023-04-16T01:58:16.380Z,84.15
2023-04-16T02:00:46.163Z,73.05
2023-04-16T02:03:20.208Z,83.53
2023-04-16T02:05:49.938Z,68.93
2023-04-16T02:08:20.356Z,83.90
2023-04-16T02:10:53.709Z,93.10
2023-04-16T02:13:27.684Z,80.43
2023-04-16T02:15:57.771Z,75.30
2023-04-16T02:18:27.802Z,76.07
2023-04-16T02:20:57.518Z,78.75
2023-04-16T02:23:27.377Z,81.55
2023-04-16T02:25:57.156Z,83.22
2023-04-16T02:28:26.837Z,75.53
2023-04-16T02:30:56.426Z,81.72
2023-04-16T02:33:31.304Z,61.13
2023-04-16T02:36:01.676Z,72.75
2023-04-16T02:38:31.482Z,79.03
2023-04-16T02:41:04.144Z,81.15
2023-04-16T02:43:33.756Z,84.28
2023-04-16T02:46:06.294Z,76.00
2023-04-16T02:48:36.058Z,80.65
2023-04-16T02:51:05.815Z,82.75
2023-04-16T02:53:38.298Z,85.55
2023-04-16T02:56:08.389Z,68.95
2023-04-16T02:58:37.978Z,69.10
2023-04-16T03:01:07.731Z,88.18
2023-04-16T03:03:37.701Z,66.43
2023-04-16T03:06:08.321Z,75.90
2023-04-16T03:08:38.705Z,75.35
2023-04-16T03:11:09.108Z,63.15
2023-04-16T03:13:38.668Z,75.25
2023-04-16T03:16:11.753Z,79.78
2023-04-16T03:18:41.466Z,71.20
2023-04-16T03:21:11.406Z,85.57
2023-04-16T03:23:41.573Z,84.07
2023-04-16T03:26:14.275Z,69.20
2023-04-16T03:28:45.230Z,70.82
2023-04-16T03:31:14.906Z,85.88
2023-04-16T03:33:48.028Z,87.22
2023-04-16T03:36:20.662Z,80.38
2023-04-16T03:38:53.724Z,83.57
2023-04-16T03:41:26.349Z,80.85
2023-04-16T03:43:56.261Z,94.72
2023-04-16T03:46:26.064Z,80.88
2023-04-16T03:48:55.723Z,73.22
2023-04-16T03:51:25.400Z,84.78
2023-04-16T03:53:57.659Z,84.60
2023-04-16T03:56:30.595Z,89.00
2023-04-16T03:59:03.674Z,94.63
2023-04-16T04:01:36.256Z,74.53
2023-04-16T04:04:06.191Z,80.53
2023-04-16T04:06:35.884Z,78.05
2023-04-16T04:09:07.759Z,86.65
2023-04-16T04:11:37.720Z,91.20
2023-04-16T04:14:13.121Z,75.88
2023-04-16T04:16:45.811Z,87.10
2023-04-16T04:19:18.066Z,83.30
2023-04-16T04:21:47.659Z,86.22
2023-04-16T04:24:17.290Z,90.20
2023-04-16T04:26:46.964Z,79.78
2023-04-16T04:29:22.292Z,97.20
2023-04-16T04:31:55.087Z,95.20
2023-04-16T04:34:27.496Z,99.05
2023-04-16T04:37:00.047Z,97.80
2023-04-16T04:39:29.742Z,93.05
2023-04-16T04:42:00.566Z,82.25
2023-04-16T04:44:33.068Z,79.45
2023-04-16T04:47:02.764Z,92.25
2023-04-16T04:49:35.847Z,82.07
2023-04-16T04:52:06.534Z,96.15
2023-04-16T04:54:36.198Z,97.53
2023-04-16T04:57:05.820Z,87.25
2023-04-16T04:59:35.470Z,87.13
2023-04-16T05:02:05.251Z,77.25
2023-04-16T05:04:34.897Z,87.47
2023-04-16T05:07:11.427Z,88.50
2023-04-16T05:09:41.083Z,73.72
2023-04-16T05:12:10.732Z,81.95
2023-04-16T05:14:40.329Z,88.00
2023-04-16T05:17:10.007Z,80.03
2023-04-16T05:19:46.407Z,71.90
2023-04-16T05:22:16.089Z,78.13
2023-04-16T05:24:46.067Z,101.78
2023-04-16T05:27:15.779Z,100.03
2023-04-16T05:29:45.425Z,88.50
2023-04-16T05:32:15.189Z,90.88
2023-04-16T05:34:48.551Z,102.00
2023-04-16T05:37:18.137Z,91.07
2023-04-16T05:39:47.850Z,85.50
2023-04-16T05:42:17.827Z,83.07
2023-04-16T05:44:52.955Z,79.68
2023-04-16T05:47:22.973Z,87.97
2023-04-16T05:49:52.709Z,74.10
2023-04-16T05:52:24.991Z,75.13
2023-04-16T05:54:57.496Z,62.85
2023-04-16T05:57:34.931Z,79.03
2023-04-16T06:00:07.750Z,68.03
2023-04-16T06:02:38.117Z,70.43
2023-04-16T06:05:11.023Z,76.65
2023-04-16T06:07:42.671Z,71.65
2023-04-16T06:10:15.512Z,73.85
2023-04-16T06:12:48.411Z,69.40
2023-04-16T06:15:21.047Z,82.47
2023-04-16T06:17:52.657Z,65.80
2023-04-16T06:20:22.886Z,68.00
2023-04-16T06:22:55.453Z,76.60
2023-04-16T06:25:25.267Z,75.10
2023-04-16T06:27:56.738Z,71.65
2023-04-16T06:30:27.186Z,59.17
2023-04-16T06:32:57.140Z,75.57
2023-04-16T06:35:27.527Z,87.78
2023-04-16T06:37:57.232Z,74.13
2023-04-16T06:40:31.641Z,67.32
2023-04-16T06:43:02.641Z,67.18
2023-04-16T06:45:32.285Z,78.97
2023-04-16T06:48:03.019Z,63.67
2023-04-16T06:50:33.290Z,76.30
2023-04-16T06:53:10.518Z,70.75
2023-04-16T06:55:40.232Z,66.63
2023-04-16T06:58:14.732Z,43.90
2023-04-16T07:00:44.399Z,56.92
2023-04-16T07:03:16.810Z,48.78
2023-04-16T07:05:49.234Z,54.60
2023-04-16T07:08:18.835Z,64.53
2023-04-16T07:10:48.477Z,63.50
2023-04-16T07:13:20.085Z,48.08
2023-04-16T07:15:50.320Z,59.75
2023-04-16T07:18:20.812Z,55.20
2023-04-16T07:20:52.858Z,58.65
2023-04-16T07:23:25.484Z,53.15
2023-04-16T07:25:55.191Z,53.15
2023-04-16T07:28:26.830Z,48.00
2023-04-16T07:30:56.478Z,52.20
2023-04-16T07:33:26.878Z,45.70
2023-04-16T07:35:57.086Z,47.65
2023-04-16T07:38:27.326Z,60.20
2023-04-16T07:40:58.384Z,55.40
2023-04-16T07:43:28.225Z,46.65
2023-04-16T07:45:58.082Z,49.17
2023-04-16T07:48:28.777Z,48.15
2023-04-16T07:50:58.481Z,54.00
2023-04-16T07:53:28.190Z,41.65
2023-04-16T07:56:00.652Z,46.88
2023-04-16T07:58:39.882Z,49.08
2023-04-16T08:01:09.574Z,44.67
2023-04-16T08:03:39.483Z,43.90
2023-04-16T08:06:09.534Z,44.65
2023-04-16T08:08:39.701Z,42.20
2023-04-16T08:11:12.323Z,49.55
2023-04-16T08:13:44.886Z,42.35
2023-04-16T08:16:14.596Z,49.17
2023-04-16T08:18:44.727Z,38.60
2023-04-16T08:21:14.463Z,44.35
2023-04-16T08:23:44.052Z,56.15
2023-04-16T08:26:13.717Z,37.75
2023-04-16T08:28:43.368Z,53.10
2023-04-16T08:31:13.668Z,50.40
2023-04-16T08:33:43.573Z,34.65
2023-04-16T08:36:19.445Z,52.28
2023-04-16T08:38:56.448Z,45.80
2023-04-16T08:41:29.699Z,48.38
2023-04-16T08:44:04.597Z,45.50
2023-04-16T08:46:34.420Z,53.63
2023-04-16T08:49:05.914Z,56.72
2023-04-16T08:51:44.635Z,45.13
2023-04-16T08:54:16.911Z,44.95
2023-04-16T08:56:50.680Z,48.65
2023-04-16T08:59:20.487Z,34.20
2023-04-16T09:01:55.960Z,46.17
2023-04-16T09:04:29.222Z,47.35
2023-04-16T09:06:59.369Z,50.97
2023-04-16T09:09:34.546Z,58.10
2023-04-16T09:12:04.437Z,54.03
2023-04-16T09:14:34.199Z,43.05
2023-04-16T09:17:06.465Z,45.05
2023-04-16T09:19:36.438Z,50.65
2023-04-16T09:22:06.568Z,50.15
2023-04-16T09:24:37.111Z,39.90
2023-04-16T09:27:07.579Z,46.90
2023-04-16T09:29:43.582Z,49.63
2023-04-16T09:32:14.520Z,36.65
2023-04-16T09:35:09.230Z,35.40
2023-04-16T09:37:39.498Z,37.63
2023-04-16T09:40:09.808Z,41.30
2023-04-16T09:42:43.037Z,47.53
2023-04-16T09:45:13.198Z,43.40
2023-04-16T09:47:44.964Z,44.70
2023-04-16T09:50:20.905Z,41.97
2023-04-16T09:52:53.639Z,42.00
2023-04-16T09:55:29.287Z,34.08
2023-04-16T09:58:03.039Z,41.00
2023-04-16T10:00:42.342Z,37.87
2023-04-16T10:03:16.082Z,39.78
2023-04-16T10:05:45.784Z,38.58
2023-04-16T10:08:17.790Z,35.42
2023-04-16T10:10:48.012Z,32.60
2023-04-16T10:13:23.486Z,32.00
2023-04-16T10:15:53.351Z,39.05
2023-04-16T10:18:23.821Z,38.58
2023-04-16T10:20:54.148Z,37.78
2023-04-16T10:23:26.633Z,36.63
2023-04-16T10:25:57.772Z,30.73
2023-04-16T10:28:27.560Z,41.20
2023-04-16T10:30:59.641Z,44.17
2023-04-16T10:33:43.044Z,33.72
2023-04-16T10:36:19.349Z,38.90
2023-04-16T10:38:51.682Z,41.13
2023-04-16T10:41:24.318Z,33.88
2023-04-16T10:43:54.206Z,42.40
2023-04-16T10:46:29.358Z,35.63
2023-04-16T10:49:02.909Z,29.52
2023-04-16T10:51:37.805Z,43.53
2023-04-16T10:54:16.916Z,29.58
2023-04-16T10:56:53.923Z,34.33
2023-04-16T10:59:33.011Z,34.13
2023-04-16T11:02:08.907Z,32.95
2023-04-16T11:04:49.204Z,36.50
2023-04-16T11:07:35.664Z,39.72
2023-04-16T11:10:10.031Z,41.97
2023-04-16T11:12:55.400Z,40.40
2023-04-16T11:15:26.346Z,38.63
2023-04-16T11:17:56.290Z,40.97
2023-04-16T11:20:28.247Z,40.95
2023-04-16T11:22:59.981Z,38.63
2023-04-16T11:25:31.948Z,46.33
2023-04-16T11:28:08.228Z,41.60
2023-04-16T11:30:44.195Z,27.70
2023-04-16T11:33:17.470Z,40.88
2023-04-16T11:35:47.585Z,46.90
2023-04-16T11:38:17.332Z,40.13
2023-04-16T11:40:47.175Z,30.40
2023-04-16T11:43:18.547Z,43.25
2023-04-16T11:46:12.821Z,37.63
2023-04-16T11:48:53.954Z,47.30
2023-04-16T11:51:24.803Z,31.45
2023-04-16T11:53:57.779Z,42.10
2023-04-16T11:56:32.461Z,40.28
2023-04-16T12:02:04.713Z,50.92
2023-04-16T12:04:36.235Z,42.47
2023-04-16T12:07:16.067Z,46.10
2023-04-16T12:09:46.849Z,47.38
2023-04-16T12:12:32.787Z,41.63
2023-04-16T12:15:07.447Z,52.72
2023-04-16T12:17:38.777Z,48.15
2023-04-16T12:20:13.070Z,44.55
2023-04-16T12:22:49.890Z,43.20
2023-04-16T12:25:24.595Z,59.45
2023-04-16T12:27:57.464Z,48.45
2023-04-16T12:30:28.403Z,57.47
2023-04-16T12:33:19.288Z,38.33
2023-04-16T12:35:52.617Z,48.10
2023-04-16T12:38:24.531Z,50.95
2023-04-16T12:41:01.078Z,59.78
2023-04-16T12:43:30.814Z,46.58
2023-04-16T12:46:03.528Z,57.20
2023-04-16T12:48:34.240Z,57.53
2023-04-16T12:51:04.143Z,53.17
2023-04-16T12:53:33.760Z,61.50
2023-04-16T12:56:08.266Z,49.30
2023-04-16T12:58:37.978Z,59.13
2023-04-16T13:01:07.823Z,47.08
2023-04-16T13:03:38.910Z,68.18
2023-04-16T13:06:09.538Z,63.35
2023-04-16T13:08:39.455Z,60.60
2023-04-16T13:11:12.388Z,62.30
2023-04-16T13:13:42.479Z,58.28
2023-04-16T13:16:13.024Z,44.72
2023-04-16T13:18:43.196Z,64.25
2023-04-16T13:21:13.930Z,52.00
2023-04-16T13:23:43.563Z,56.70
2023-04-16T13:26:14.770Z,55.42
2023-04-16T13:28:44.409Z,70.50
2023-04-16T13:31:14.140Z,67.25
2023-04-16T13:33:47.010Z,54.67
2023-04-16T13:36:19.799Z,57.65
2023-04-16T13:38:53.008Z,52.13
2023-04-16T13:41:25.592Z,62.20
2023-04-16T13:43:55.836Z,70.70
2023-04-16T13:46:26.300Z,60.72
2023-04-16T13:48:56.072Z,70.82
2023-04-16T13:51:25.941Z,52.30
2023-04-16T13:53:59.916Z,72.75
2023-04-16T13:56:29.621Z,56.22
2023-04-16T13:59:03.925Z,70.30
2023-04-16T14:01:33.543Z,49.70
2023-04-16T14:04:08.099Z,72.63
2023-04-16T14:06:41.022Z,56.40
2023-04-16T14:09:13.076Z,60.15
2023-04-16T14:11:43.027Z,61.22
2023-04-16T14:14:12.727Z,73.60
2023-04-16T14:16:43.129Z,68.03
2023-04-16T14:19:13.679Z,76.38
2023-04-16T14:21:43.305Z,66.05
2023-04-16T14:24:13.025Z,65.30
2023-04-16T14:26:54.892Z,71.75
2023-04-16T14:29:24.527Z,65.18
2023-04-16T14:31:54.193Z,64.25
2023-04-16T14:34:26.806Z,67.55
2023-04-16T14:36:56.497Z,75.35
2023-04-16T14:39:26.957Z,76.70
2023-04-16T14:42:00.520Z,70.05
2023-04-16T14:44:33.109Z,67.10
2023-04-16T14:47:02.762Z,62.55
2023-04-16T14:49:32.482Z,80.00
2023-04-16T14:52:07.592Z,69.93
2023-04-16T14:54:42.375Z,74.22
2023-04-16T14:59:44.285Z,72.10
2023-04-16T15:02:17.068Z,74.05
2023-04-16T15:04:46.992Z,73.60
2023-04-16T15:07:16.685Z,68.57
2023-04-16T15:09:55.540Z,67.05
2023-04-16T15:12:28.385Z,63.20
2023-04-16T15:14:58.118Z,66.03
2023-04-16T15:17:28.244Z,59.25
2023-04-16T15:20:00.940Z,68.72
2023-04-16T15:22:30.702Z,74.00
2023-04-16T15:25:00.328Z,71.90
2023-04-16T15:27:30.262Z,78.88
2023-04-16T15:30:00.519Z,75.57
2023-04-16T15:32:31.134Z,63.25
2023-04-16T15:35:04.372Z,74.00
2023-04-16T15:37:36.909Z,76.10
2023-04-16T15:40:10.494Z,76.25
2023-04-16T15:42:40.798Z,74.53
2023-04-16T15:45:10.668Z,68.28
2023-04-16T15:47:41.833Z,57.00
2023-04-16T15:50:12.465Z,71.07
2023-04-16T15:52:47.368Z,71.68
2023-04-16T15:55:17.821Z,62.30
2023-04-16T15:57:50.399Z,71.22
2023-04-16T16:00:20.619Z,66.57
2023-04-16T16:02:53.447Z,84.57
2023-04-16T16:05:23.201Z,70.25
2023-04-16T16:07:53.322Z,64.43
2023-04-16T16:10:23.026Z,77.10
2023-04-16T16:12:52.771Z,66.68
2023-04-16T16:15:22.563Z,60.30
2023-04-16T16:17:54.321Z,68.90
2023-04-16T16:20:27.180Z,64.60
2023-04-16T16:22:58.007Z,73.40
2023-04-16T16:25:30.639Z,65.68
2023-04-16T16:28:00.949Z,68.10
2023-04-16T16:30:33.704Z,63.70
2023-04-16T16:33:03.417Z,60.92
2023-04-16T16:35:33.885Z,66.55
2023-04-16T16:38:03.995Z,62.40
2023-04-16T16:40:33.842Z,80.43
2023-04-16T16:43:04.256Z,75.40
2023-04-16T16:45:34.283Z,64.97
2023-04-16T16:48:05.497Z,66.28
2023-04-16T16:50:35.316Z,70.15
2023-04-16T16:53:05.570Z,63.58
2023-04-16T16:55:36.662Z,66.15
2023-04-16T16:58:06.349Z,73.78
2023-04-16T17:00:36.226Z,67.13
2023-04-16T17:03:06.025Z,64.03
2023-04-16T17:05:35.804Z,67.10
2023-04-16T17:08:05.587Z,68.75
2023-04-16T17:10:37.992Z,60.95
2023-04-16T17:13:07.668Z,62.65
2023-04-16T17:15:37.272Z,68.25
2023-04-16T17:18:10.047Z,72.75
2023-04-16T17:20:40.005Z,60.22
2023-04-16T17:23:09.657Z,73.60
2023-04-16T17:25:39.371Z,65.82
2023-04-16T17:28:09.085Z,66.20
2023-04-16T17:30:41.315Z,64.80
2023-04-16T17:33:11.014Z,78.68
2023-04-16T17:35:42.527Z,65.20
2023-04-16T17:38:12.191Z,70.03
2023-04-16T17:40:41.965Z,63.78
2023-04-16T17:43:11.640Z,64.07
2023-04-16T17:45:41.370Z,62.22
2023-04-16T17:48:17.493Z,66.45
2023-04-16T17:50:51.430Z,60.83
2023-04-16T17:53:21.048Z,79.80
2023-04-16T17:55:59.594Z,63.67
2023-04-16T17:58:32.003Z,77.78
2023-04-16T18:01:01.967Z,64.05
2023-04-16T18:03:32.489Z,76.80
2023-04-16T18:06:02.721Z,67.22
2023-04-16T18:08:32.700Z,64.70
2023-04-16T18:11:12.532Z,64.43
2023-04-16T18:13:42.563Z,67.45
2023-04-16T18:16:21.161Z,75.60
2023-04-16T18:18:51.193Z,69.53
2023-04-16T18:21:20.802Z,71.93
2023-04-16T18:23:53.555Z,73.97
2023-04-16T18:26:23.336Z,78.50
2023-04-16T18:28:53.550Z,69.80
2023-04-16T18:31:23.617Z,70.38
2023-04-16T18:33:58.149Z,67.10
2023-04-16T18:36:29.070Z,78.10
2023-04-16T18:39:02.461Z,78.90
2023-04-16T18:41:33.091Z,50.25
2023-04-16T18:44:02.716Z,62.92
2023-04-16T18:46:32.449Z,73.18
2023-04-16T18:49:02.142Z,64.90
2023-04-16T18:51:31.886Z,60.40
2023-04-16T18:54:01.565Z,69.55
2023-04-16T18:56:33.938Z,69.95
2023-04-16T18:59:03.658Z,53.38
2023-04-16T19:01:33.365Z,68.45
2023-04-16T19:04:03.117Z,72.07
2023-04-16T19:06:33.776Z,63.10
2023-04-16T19:09:03.373Z,65.93
2023-04-16T19:11:36.024Z,61.03
2023-04-16T19:14:09.688Z,68.05
2023-04-16T19:16:40.746Z,55.55
2023-04-16T19:19:10.735Z,60.35
2023-04-16T19:21:43.197Z,75.85
2023-04-16T19:24:13.624Z,65.53
2023-04-16T19:26:43.299Z,60.40
2023-04-16T19:29:13.217Z,63.92
2023-04-16T19:31:43.024Z,63.45
2023-04-16T19:34:13.251Z,63.85
2023-04-16T19:36:43.189Z,67.88
2023-04-16T19:39:13.323Z,72.05
2023-04-16T19:41:43.046Z,71.63
2023-04-16T19:44:12.708Z,56.55
2023-04-16T19:46:46.271Z,59.38
2023-04-16T19:49:15.854Z,67.13
2023-04-16T19:51:45.675Z,51.78
2023-04-16T19:54:18.038Z,61.85
2023-04-16T19:56:57.901Z,64.18
2023-04-16T19:59:30.660Z,66.63
2023-04-16T20:02:00.686Z,69.35
2023-04-16T20:04:30.465Z,70.22
2023-04-16T20:07:00.311Z,71.78
2023-04-16T20:09:30.064Z,60.83
2023-04-16T20:11:59.794Z,58.53
2023-04-16T20:14:31.888Z,57.42
2023-04-16T20:17:01.690Z,63.28
2023-04-16T20:19:43.258Z,67.20
2023-04-16T20:22:13.510Z,59.90
2023-04-16T20:24:48.391Z,68.78
2023-04-16T20:27:20.915Z,66.03
2023-04-16T20:30:00.922Z,64.10
2023-04-16T20:32:30.841Z,54.55
2023-04-16T20:35:03.520Z,62.67
2023-04-16T20:37:33.946Z,65.75
2023-04-16T20:40:03.960Z,63.25
2023-04-16T20:42:34.251Z,70.05
2023-04-16T20:45:04.029Z,66.72
2023-04-16T20:47:36.088Z,69.40
2023-04-16T20:50:08.426Z,78.68
2023-04-16T20:52:40.929Z,67.97
2023-04-16T20:55:11.189Z,70.72
2023-04-16T20:57:40.831Z,60.85
2023-04-16T21:00:13.136Z,33.90
2023-04-16T21:02:43.171Z,36.20
2023-04-16T21:05:18.558Z,31.30
2023-04-16T21:07:51.952Z,29.27
2023-04-16T21:10:23.312Z,31.80
2023-04-16T21:12:53.110Z,31.77
2023-04-16T21:15:22.810Z,27.25
2023-04-16T21:17:52.425Z,22.10
2023-04-16T21:20:22.085Z,23.30
2023-04-16T21:22:52.672Z,20.52
2023-04-16T21:25:42.084Z,22.67
2023-04-16T21:28:12.082Z,18.08
2023-04-16T21:30:45.254Z,19.63
2023-04-16T21:33:16.298Z,19.20
2023-04-16T21:35:49.233Z,22.30
2023-04-16T21:38:18.872Z,18.33
2023-04-16T21:40:55.173Z,19.70
2023-04-16T21:43:33.923Z,14.23
2023-04-16T21:46:04.023Z,17.08
2023-04-16T21:48:38.932Z,17.40
2023-04-16T21:51:14.837Z,18.52
2023-04-16T21:53:44.683Z,20.92
2023-04-16T21:56:19.378Z,18.63
2023-04-16T22:01:20.932Z,17.08
2023-04-16T22:03:53.301Z,20.30
2023-04-16T22:06:24.835Z,19.65
2023-04-16T22:08:54.930Z,18.33
2023-04-16T22:11:27.612Z,13.82
2023-04-16T22:14:02.536Z,20.77
2023-04-16T22:16:32.568Z,18.50
2023-04-16T22:19:02.194Z,23.52
2023-04-16T22:21:33.302Z,15.05
2023-04-16T22:24:03.092Z,17.00
2023-04-16T22:26:33.060Z,24.67
2023-04-16T22:29:05.440Z,17.77
2023-04-16T22:31:44.100Z,22.85
2023-04-16T22:34:18.416Z,15.45
2023-04-16T22:37:09.532Z,17.17
2023-04-16T22:39:51.358Z,24.02
2023-04-16T22:42:21.098Z,20.52
2023-04-16T22:44:50.633Z,18.45
2023-04-16T22:47:50.930Z,20.00
2023-04-16T22:50:58.679Z,27.17
2023-04-16T22:54:20.226Z,25.10
2023-04-16T22:56:58.418Z,23.55
2023-04-16T22:59:31.563Z,19.40
2023-04-16T23:02:12.105Z,25.55
2023-04-16T23:04:41.873Z,23.00
2023-04-16T23:07:11.680Z,28.70
2023-04-16T23:09:41.526Z,20.50
2023-04-16T23:12:11.522Z,19.10
2023-04-16T23:14:41.154Z,19.60
2023-04-16T23:17:10.767Z,23.65
2023-04-16T23:19:49.485Z,21.55
2023-04-16T23:22:19.213Z,21.70
2023-04-16T23:24:51.553Z,16.55
2023-04-16T23:27:24.036Z,18.33
2023-04-16T23:29:56.366Z,23.95
2023-04-16T23:32:26.066Z,20.88
2023-04-16T23:34:56.017Z,22.52
2023-04-16T23:37:26.136Z,20.40
2023-04-16T23:39:56.054Z,21.63
2023-04-16T23:42:28.688Z,23.90
2023-04-16T23:45:01.468Z,19.02
2023-04-16T23:47:31.187Z,21.05
2023-04-16T23:50:00.858Z,23.58
2023-04-16T23:52:30.648Z,16.88
2023-04-16T23:55:01.587Z,17.88
2023-04-16T23:57:31.455Z,18.90
